METAR Data
IDs: Format: Raw Decoded Include TAF

Data at: 1855 UTC 25 Oct 2021

EDDS 251850Z 26004KT CAVOK 07/03 Q1020 NOSIG